createdAt,value
2022-11-13T00:02:55.496Z,28.80
2022-11-13T00:05:42.199Z,28.50
2022-11-13T00:08:29.314Z,29.90
2022-11-13T00:11:19.451Z,29.40
2022-11-13T00:14:06.184Z,28.80
2022-11-13T00:16:53.230Z,28.90
2022-11-13T00:19:39.916Z,28.50
2022-11-13T00:22:26.517Z,25.90
2022-11-13T00:25:13.498Z,25.60
2022-11-13T00:28:00.056Z,24.50
2022-11-13T00:30:46.620Z,26.60
2022-11-13T00:36:40.631Z,28.10
2022-11-13T00:39:27.210Z,27.90
2022-11-13T00:42:13.686Z,30.20
2022-11-13T00:45:00.035Z,28.70
2022-11-13T00:47:46.571Z,27.10
2022-11-13T00:50:33.076Z,30.10
2022-11-13T00:53:19.601Z,31.10
2022-11-13T00:56:06.171Z,26.00
2022-11-13T00:58:53.069Z,24.50
2022-11-13T01:01:39.811Z,26.50
2022-11-13T01:04:28.533Z,25.60
2022-11-13T01:07:15.119Z,25.60
2022-11-13T01:10:03.127Z,25.80
2022-11-13T01:12:49.791Z,25.80
2022-11-13T01:15:40.207Z,25.10
2022-11-13T01:18:26.647Z,25.70
2022-11-13T01:21:19.321Z,24.30
2022-11-13T01:24:06.059Z,25.00
2022-11-13T01:26:54.363Z,25.10
2022-11-13T01:29:41.005Z,25.80
2022-11-13T01:32:27.733Z,26.70
2022-11-13T01:35:14.475Z,25.80
2022-11-13T01:38:00.961Z,26.20
2022-11-13T01:40:48.503Z,29.50
2022-11-13T01:43:37.562Z,29.70
2022-11-13T01:46:36.664Z,29.50
2022-11-13T01:49:29.447Z,28.10
2022-11-13T01:52:21.576Z,27.70
2022-11-13T01:55:17.680Z,24.40
2022-11-13T01:58:07.773Z,26.50
2022-11-13T02:00:54.830Z,26.10
2022-11-13T02:03:41.634Z,23.50
2022-11-13T02:06:33.862Z,21.10
2022-11-13T02:09:24.887Z,26.40
2022-11-13T02:12:14.743Z,26.60
2022-11-13T02:15:04.781Z,26.50
2022-11-13T02:17:58.380Z,23.80
2022-11-13T02:20:56.213Z,24.70
2022-11-13T02:24:12.817Z,25.40
2022-11-13T02:27:03.296Z,27.00
2022-11-13T02:29:49.813Z,23.00
2022-11-13T02:32:43.012Z,24.20
2022-11-13T02:35:37.907Z,20.80
2022-11-13T02:38:24.693Z,23.50
2022-11-13T02:41:11.358Z,23.70
2022-11-13T02:43:58.187Z,24.20
2022-11-13T02:46:44.514Z,25.30
2022-11-13T02:49:31.564Z,24.60
2022-11-13T02:52:18.201Z,25.10
2022-11-13T02:55:05.719Z,23.50
2022-11-13T02:57:52.341Z,24.40
2022-11-13T03:00:39.022Z,21.00
2022-11-13T03:03:55.931Z,22.40
2022-11-13T03:06:32.236Z,21.00
2022-11-13T03:09:18.851Z,20.80
2022-11-13T03:12:07.198Z,21.70
2022-11-13T03:14:54.039Z,22.00
2022-11-13T03:17:40.723Z,19.90
2022-11-13T03:20:27.176Z,21.20
2022-11-13T03:23:13.724Z,20.00
2022-11-13T03:26:18.281Z,22.30
2022-11-13T03:29:05.012Z,21.80
2022-11-13T03:31:51.870Z,22.00
2022-11-13T03:34:39.436Z,23.50
2022-11-13T03:37:26.404Z,24.80
2022-11-13T03:40:12.990Z,24.90
2022-11-13T03:42:59.589Z,23.90
2022-11-13T03:45:47.537Z,21.40
2022-11-13T03:48:34.460Z,21.70
2022-11-13T03:51:21.224Z,20.50
2022-11-13T03:54:07.788Z,20.30
2022-11-13T03:56:54.990Z,21.60
2022-11-13T03:59:41.664Z,21.60
2022-11-13T04:02:28.544Z,21.60
2022-11-13T04:05:17.513Z,19.50
2022-11-13T04:08:09.145Z,19.80
2022-11-13T04:10:55.547Z,20.90
2022-11-13T04:13:42.137Z,19.00
2022-11-13T04:16:28.541Z,19.00
2022-11-13T04:19:15.269Z,20.90
2022-11-13T04:22:01.861Z,21.80
2022-11-13T04:24:48.276Z,22.30
2022-11-13T04:27:35.392Z,22.50
2022-11-13T04:30:21.610Z,22.70
2022-11-13T04:33:08.224Z,20.90
2022-11-13T04:35:54.952Z,20.90
2022-11-13T04:38:41.677Z,21.10
2022-11-13T04:41:50.011Z,19.50
2022-11-13T04:44:39.235Z,22.90
2022-11-13T04:47:25.793Z,24.00
2022-11-13T04:50:13.399Z,24.60
2022-11-13T04:53:00.185Z,23.70
2022-11-13T04:55:46.997Z,25.60
2022-11-13T04:58:34.118Z,25.00
2022-11-13T05:01:20.692Z,18.70
2022-11-13T05:04:07.431Z,20.90
2022-11-13T05:06:54.420Z,22.70
2022-11-13T05:09:41.052Z,22.00
2022-11-13T05:12:27.653Z,18.70
2022-11-13T05:15:14.667Z,19.50
2022-11-13T05:18:01.291Z,19.80
2022-11-13T05:20:48.305Z,20.60
2022-11-13T05:23:36.320Z,19.70
2022-11-13T05:26:23.098Z,20.20
2022-11-13T05:29:09.459Z,18.40
2022-11-13T05:31:56.496Z,20.40
2022-11-13T05:34:43.429Z,21.10
2022-11-13T05:37:30.105Z,20.20
2022-11-13T05:40:17.106Z,19.90
2022-11-13T05:43:04.058Z,21.30
2022-11-13T05:45:50.453Z,22.80
2022-11-13T05:48:37.339Z,23.10
2022-11-13T05:51:27.483Z,21.60
2022-11-13T05:54:14.587Z,23.00
2022-11-13T05:57:01.134Z,19.70
2022-11-13T05:59:47.801Z,20.30
2022-11-13T06:02:35.524Z,20.60
2022-11-13T06:05:22.192Z,20.90
2022-11-13T06:08:08.802Z,15.70
2022-11-13T06:11:00.760Z,19.60
2022-11-13T06:13:48.944Z,21.50
2022-11-13T06:16:37.544Z,26.60
2022-11-13T06:19:24.179Z,23.60
2022-11-13T06:22:10.856Z,24.60
2022-11-13T06:24:57.282Z,22.00
2022-11-13T06:27:43.978Z,21.60
2022-11-13T06:30:30.655Z,21.70
2022-11-13T06:33:17.385Z,21.10
2022-11-13T06:36:10.528Z,22.00
2022-11-13T06:38:58.466Z,18.70
2022-11-13T06:41:45.124Z,20.30
2022-11-13T06:44:32.159Z,20.70
2022-11-13T06:47:19.051Z,21.40
2022-11-13T06:50:06.941Z,22.00
2022-11-13T06:52:54.606Z,22.70
2022-11-13T06:55:50.058Z,21.50
2022-11-13T06:58:37.892Z,19.50
2022-11-13T07:01:26.102Z,20.70
2022-11-13T07:04:14.058Z,20.60
2022-11-13T07:07:00.782Z,19.90
2022-11-13T07:09:47.340Z,19.10
2022-11-13T07:12:34.124Z,18.10
2022-11-13T07:15:20.894Z,17.50
2022-11-13T07:18:07.969Z,18.90
2022-11-13T07:20:55.324Z,17.90
2022-11-13T07:23:43.611Z,17.70
2022-11-13T07:26:30.665Z,19.00
2022-11-13T07:29:17.167Z,19.80
2022-11-13T07:32:04.330Z,22.00
2022-11-13T07:34:51.152Z,21.60
2022-11-13T07:37:38.564Z,22.70
2022-11-13T07:40:25.826Z,22.30
2022-11-13T07:43:12.605Z,23.10
2022-11-13T07:46:00.788Z,22.90
2022-11-13T07:48:47.498Z,20.50
2022-11-13T07:51:34.459Z,20.70
2022-11-13T07:54:20.875Z,19.50
2022-11-13T07:57:07.890Z,19.90
2022-11-13T07:59:54.974Z,21.70
2022-11-13T08:02:41.469Z,18.80
2022-11-13T08:05:28.134Z,16.00
2022-11-13T08:08:15.663Z,12.20
2022-11-13T08:11:06.757Z,15.30
2022-11-13T08:13:54.072Z,15.10
2022-11-13T08:16:41.133Z,17.50
2022-11-13T08:19:27.544Z,17.60
2022-11-13T08:22:14.310Z,16.90
2022-11-13T08:25:01.127Z,16.60
2022-11-13T08:27:47.961Z,17.00
2022-11-13T08:30:34.217Z,17.30
2022-11-13T08:33:21.072Z,14.50
2022-11-13T08:36:09.011Z,13.90
2022-11-13T08:38:55.599Z,13.70
2022-11-13T08:41:42.260Z,13.60
2022-11-13T08:44:28.936Z,14.50
2022-11-13T08:47:16.100Z,13.90
2022-11-13T08:50:04.818Z,12.40
2022-11-13T08:52:59.764Z,13.30
2022-11-13T08:55:46.374Z,15.20
2022-11-13T08:58:33.025Z,16.40
2022-11-13T09:01:23.623Z,16.50
2022-11-13T09:04:11.720Z,14.00
2022-11-13T09:06:58.725Z,18.00
2022-11-13T09:09:45.722Z,16.90
2022-11-13T09:12:32.164Z,15.00
2022-11-13T09:15:23.288Z,18.90
2022-11-13T09:18:11.629Z,20.30
2022-11-13T09:21:02.985Z,18.90
2022-11-13T09:23:49.704Z,21.90
2022-11-13T09:26:37.023Z,19.90
2022-11-13T09:29:26.189Z,18.70
2022-11-13T09:32:12.997Z,22.20
2022-11-13T09:35:00.316Z,29.10
2022-11-13T09:37:52.395Z,26.70
2022-11-13T09:41:00.983Z,24.80
2022-11-13T09:43:59.290Z,23.90
2022-11-13T09:46:59.351Z,23.80
2022-11-13T09:49:52.501Z,25.40
2022-11-13T09:52:43.021Z,18.70
2022-11-13T09:55:38.673Z,19.50
2022-11-13T09:58:43.613Z,16.50
2022-11-13T10:01:56.349Z,13.40
2022-11-13T10:05:04.409Z,17.20
2022-11-13T10:08:06.586Z,19.70
2022-11-13T10:11:11.853Z,16.10
2022-11-13T10:14:03.686Z,18.90
2022-11-13T10:16:50.409Z,16.60
2022-11-13T10:20:00.112Z,16.50
2022-11-13T10:22:59.421Z,18.70
2022-11-13T10:25:46.993Z,22.80
2022-11-13T10:28:50.192Z,23.50
2022-11-13T10:31:47.903Z,23.70
2022-11-13T10:34:34.970Z,24.50
2022-11-13T10:37:27.597Z,24.20
2022-11-13T10:40:36.206Z,18.10
2022-11-13T10:43:26.444Z,22.70
2022-11-13T10:46:24.600Z,21.30
2022-11-13T10:49:29.558Z,19.60
2022-11-13T10:52:25.619Z,20.80
2022-11-13T10:55:36.134Z,20.80
2022-11-13T10:58:23.347Z,14.80
2022-11-13T11:01:23.693Z,15.50
2022-11-13T11:04:20.021Z,18.10
2022-11-13T11:07:22.837Z,18.80
2022-11-13T11:10:20.571Z,17.30
2022-11-13T11:13:12.741Z,18.10
2022-11-13T11:16:04.765Z,18.00
2022-11-13T11:19:09.883Z,18.10
2022-11-13T11:22:13.991Z,18.20
2022-11-13T11:25:24.791Z,17.90
2022-11-13T11:28:21.619Z,17.60
2022-11-13T11:31:17.589Z,19.20
2022-11-13T11:34:13.273Z,15.30
2022-11-13T11:37:07.620Z,19.40
2022-11-13T11:40:03.520Z,17.80
2022-11-13T11:43:01.853Z,19.20
2022-11-13T11:45:49.674Z,17.30
2022-11-13T11:48:37.179Z,15.70
2022-11-13T11:51:31.193Z,18.50
2022-11-13T11:54:44.097Z,18.20
2022-11-13T11:57:57.863Z,18.70
2022-11-13T12:00:53.695Z,18.70
2022-11-13T12:03:56.296Z,11.60
2022-11-13T12:07:05.044Z,16.80
2022-11-13T12:10:10.312Z,17.50
2022-11-13T12:13:09.448Z,16.40
2022-11-13T12:16:25.065Z,14.50
2022-11-13T12:19:30.911Z,18.60
2022-11-13T12:22:20.871Z,15.90
2022-11-13T12:25:14.266Z,19.00
2022-11-13T12:28:24.487Z,21.70
2022-11-13T12:31:40.772Z,18.80
2022-11-13T12:34:39.475Z,21.80
2022-11-13T12:37:32.321Z,20.80
2022-11-13T12:40:28.952Z,19.20
2022-11-13T12:43:25.467Z,19.30
2022-11-13T12:46:13.332Z,18.60
2022-11-13T12:49:01.176Z,19.70
2022-11-13T12:51:56.086Z,20.40
2022-11-13T12:54:43.893Z,19.80
2022-11-13T12:57:32.601Z,17.70
2022-11-13T13:00:30.844Z,20.30
2022-11-13T13:03:39.442Z,19.90
2022-11-13T13:06:26.014Z,20.00
2022-11-13T13:09:30.728Z,19.90
2022-11-13T13:12:24.099Z,17.40
2022-11-13T13:15:35.281Z,21.10
2022-11-13T13:18:25.097Z,19.10
2022-11-13T13:21:15.820Z,21.80
2022-11-13T13:24:27.157Z,24.30
2022-11-13T13:27:29.646Z,19.90
2022-11-13T13:30:26.697Z,19.20
2022-11-13T13:33:25.518Z,17.20
2022-11-13T13:36:19.413Z,19.80
2022-11-13T13:39:22.898Z,20.20
2022-11-13T13:42:35.173Z,19.70
2022-11-13T13:45:42.614Z,16.90
2022-11-13T13:48:32.168Z,19.20
2022-11-13T13:51:34.387Z,18.80
2022-11-13T13:54:31.988Z,18.70
2022-11-13T13:57:18.763Z,18.10
2022-11-13T14:00:14.817Z,19.10
2022-11-13T14:05:50.330Z,20.60
2022-11-13T14:08:36.644Z,21.20
2022-11-13T14:11:29.978Z,21.40
2022-11-13T14:14:23.313Z,23.30
2022-11-13T14:17:12.045Z,23.00
2022-11-13T14:20:01.448Z,21.80
2022-11-13T14:22:56.281Z,18.80
2022-11-13T14:25:45.328Z,20.20
2022-11-13T14:28:36.337Z,20.90
2022-11-13T14:31:32.688Z,19.00
2022-11-13T14:34:22.679Z,20.20
2022-11-13T14:37:19.912Z,20.30
2022-11-13T14:40:23.669Z,22.30
2022-11-13T14:43:27.821Z,23.10
2022-11-13T14:46:48.071Z,24.90
2022-11-13T14:49:38.035Z,21.50
2022-11-13T14:52:28.098Z,23.20
2022-11-13T14:55:31.756Z,23.20
2022-11-13T14:58:36.614Z,22.60
2022-11-13T15:01:25.440Z,22.60
2022-11-13T15:04:12.409Z,24.00
2022-11-13T15:07:02.292Z,24.70
2022-11-13T15:09:50.136Z,27.90
2022-11-13T15:12:37.279Z,26.10
2022-11-13T15:15:28.489Z,26.90
2022-11-13T15:18:19.958Z,29.50
2022-11-13T15:21:06.894Z,32.90
2022-11-13T15:23:53.997Z,34.40
2022-11-13T15:26:41.253Z,31.90
2022-11-13T15:29:28.154Z,27.50
2022-11-13T15:32:16.222Z,30.20
2022-11-13T15:35:04.356Z,30.20
2022-11-13T15:37:51.304Z,30.70
2022-11-13T15:40:39.588Z,30.50
2022-11-13T15:43:27.096Z,30.20
2022-11-13T15:46:17.623Z,31.00
2022-11-13T15:49:04.315Z,28.50
2022-11-13T15:51:51.106Z,27.50
2022-11-13T15:54:38.947Z,29.20
2022-11-13T15:57:27.724Z,27.60
2022-11-13T16:00:17.859Z,31.40
2022-11-13T16:03:11.238Z,32.90
2022-11-13T16:05:59.823Z,33.00
2022-11-13T16:08:47.414Z,32.70
2022-11-13T16:11:35.152Z,37.70
2022-11-13T16:14:25.288Z,41.50
2022-11-13T16:17:20.979Z,43.10
2022-11-13T16:20:14.231Z,37.20
2022-11-13T16:23:01.074Z,39.30
2022-11-13T16:25:49.712Z,41.50
2022-11-13T16:28:46.916Z,41.50
2022-11-13T16:31:43.773Z,39.90
2022-11-13T16:34:31.190Z,33.70
2022-11-13T16:37:20.990Z,37.70
2022-11-13T16:40:25.943Z,37.00
2022-11-13T16:43:13.388Z,40.30
2022-11-13T16:46:01.109Z,39.40
2022-11-13T16:48:48.287Z,43.00
2022-11-13T16:51:35.144Z,43.50
2022-11-13T16:54:22.013Z,42.70
2022-11-13T16:57:14.036Z,37.00
2022-11-13T17:00:00.524Z,36.30
2022-11-13T17:02:51.873Z,35.30
2022-11-13T17:05:38.811Z,30.70
2022-11-13T17:08:25.418Z,32.50
2022-11-13T17:11:14.125Z,28.20
2022-11-13T17:14:02.987Z,30.60
2022-11-13T17:16:49.427Z,27.60
2022-11-13T17:19:40.844Z,29.20
2022-11-13T17:22:28.007Z,28.70
2022-11-13T17:25:20.808Z,27.50
2022-11-13T17:28:07.683Z,26.80
2022-11-13T17:30:59.021Z,26.90
2022-11-13T17:33:47.478Z,28.10
2022-11-13T17:36:34.156Z,28.50
2022-11-13T17:39:21.452Z,28.80
2022-11-13T17:42:08.076Z,27.90
2022-11-13T17:44:55.467Z,28.30
2022-11-13T17:47:43.131Z,28.10
2022-11-13T17:50:30.044Z,29.10
2022-11-13T17:53:16.808Z,30.70
2022-11-13T17:56:07.449Z,26.80
2022-11-13T17:58:55.097Z,24.60
2022-11-13T18:01:42.402Z,21.40
2022-11-13T18:04:28.989Z,25.60
2022-11-13T18:07:15.541Z,25.00
2022-11-13T18:10:02.721Z,24.30
2022-11-13T18:12:49.260Z,22.30
2022-11-13T18:15:40.697Z,21.30
2022-11-13T18:18:27.516Z,21.40
2022-11-13T18:21:24.877Z,20.60
2022-11-13T18:24:15.961Z,20.80
2022-11-13T18:27:06.287Z,21.70
2022-11-13T18:29:53.776Z,20.60
2022-11-13T18:32:40.706Z,20.80
2022-11-13T18:35:27.284Z,22.10
2022-11-13T18:38:13.944Z,21.60
2022-11-13T18:41:09.718Z,24.90
2022-11-13T18:43:56.568Z,26.80
2022-11-13T18:46:43.822Z,25.30
2022-11-13T18:49:31.105Z,25.40
2022-11-13T18:52:17.776Z,25.00
2022-11-13T18:55:04.824Z,26.70
2022-11-13T18:57:51.875Z,24.80
2022-11-13T19:00:39.356Z,25.60
2022-11-13T19:03:26.508Z,24.90
2022-11-13T19:06:17.450Z,25.10
2022-11-13T19:09:07.667Z,23.90
2022-11-13T19:11:54.673Z,24.70
2022-11-13T19:14:41.765Z,25.40
2022-11-13T19:17:28.618Z,23.80
2022-11-13T19:20:17.906Z,24.00
2022-11-13T19:23:09.046Z,27.10
2022-11-13T19:25:56.740Z,27.10
2022-11-13T19:28:48.873Z,28.10
2022-11-13T19:31:37.004Z,24.60
2022-11-13T19:34:24.095Z,28.10
2022-11-13T19:37:13.798Z,28.10
2022-11-13T19:40:04.054Z,26.40
2022-11-13T19:42:52.875Z,27.30
2022-11-13T19:45:40.237Z,24.30
2022-11-13T19:48:27.416Z,23.80
2022-11-13T19:51:21.141Z,23.70
2022-11-13T19:54:08.516Z,23.80
2022-11-13T19:56:55.388Z,24.00
2022-11-13T19:59:42.418Z,23.00
2022-11-13T20:02:29.102Z,22.80
2022-11-13T20:05:16.242Z,22.90
2022-11-13T20:08:03.407Z,21.60
2022-11-13T20:10:50.486Z,23.70
2022-11-13T20:13:39.578Z,22.10
2022-11-13T20:16:26.714Z,26.10
2022-11-13T20:19:13.716Z,26.90
2022-11-13T20:22:00.906Z,26.10
2022-11-13T20:24:47.923Z,21.90
2022-11-13T20:27:37.365Z,18.20
2022-11-13T20:30:24.003Z,16.00
2022-11-13T20:33:11.254Z,20.80
2022-11-13T20:35:58.432Z,17.70
2022-11-13T20:38:53.466Z,18.40
2022-11-13T20:41:40.250Z,18.60
2022-11-13T20:44:27.069Z,18.30
2022-11-13T20:47:14.336Z,16.40
2022-11-13T20:50:01.485Z,16.40
2022-11-13T20:52:47.755Z,18.00
2022-11-13T20:55:35.882Z,15.30
2022-11-13T20:58:23.143Z,17.90
2022-11-13T21:01:13.451Z,14.60
2022-11-13T21:04:00.363Z,17.30
2022-11-13T21:06:47.739Z,16.40
2022-11-13T21:09:34.339Z,17.30
2022-11-13T21:12:20.871Z,17.10
2022-11-13T21:15:08.437Z,16.30
2022-11-13T21:17:55.448Z,15.70
2022-11-13T21:20:42.484Z,16.00
2022-11-13T21:23:30.179Z,15.60
2022-11-13T21:26:16.763Z,18.60
2022-11-13T21:29:03.456Z,19.00
2022-11-13T21:31:50.112Z,20.10
2022-11-13T21:34:37.025Z,17.60
2022-11-13T21:37:24.068Z,18.80
2022-11-13T21:40:11.487Z,19.50
2022-11-13T21:42:57.988Z,20.40
2022-11-13T21:45:44.903Z,20.60
2022-11-13T21:48:33.531Z,18.90
2022-11-13T21:51:20.737Z,17.50
2022-11-13T21:54:08.680Z,14.40
2022-11-13T21:56:55.530Z,16.10
2022-11-13T21:59:41.993Z,12.80
2022-11-13T22:02:28.729Z,15.30
2022-11-13T22:05:15.523Z,14.70
2022-11-13T22:08:02.325Z,15.50
2022-11-13T22:10:49.166Z,15.50
2022-11-13T22:13:36.491Z,14.20
2022-11-13T22:16:23.900Z,13.10
2022-11-13T22:19:23.843Z,12.30
2022-11-13T22:22:13.432Z,11.90
2022-11-13T22:25:00.104Z,12.80
2022-11-13T22:27:47.062Z,12.80
2022-11-13T22:30:34.253Z,10.50
2022-11-13T22:33:20.897Z,8.10
2022-11-13T22:36:17.897Z,9.90
2022-11-13T22:39:06.154Z,10.10
2022-11-13T22:41:53.154Z,9.50
2022-11-13T22:44:54.987Z,10.60
2022-11-13T22:47:42.389Z,11.10
2022-11-13T22:50:29.086Z,8.70
2022-11-13T22:53:16.675Z,9.00
2022-11-13T22:56:09.935Z,8.70
2022-11-13T22:58:58.883Z,10.80
2022-11-13T23:01:46.584Z,14.80
2022-11-13T23:04:33.080Z,16.20
2022-11-13T23:07:19.934Z,18.10
2022-11-13T23:10:07.671Z,13.90
2022-11-13T23:12:54.484Z,11.40
2022-11-13T23:15:42.229Z,10.30
2022-11-13T23:18:32.911Z,11.90
2022-11-13T23:21:19.962Z,12.60
2022-11-13T23:24:06.925Z,12.00
2022-11-13T23:26:53.577Z,13.70
2022-11-13T23:29:40.452Z,13.70
2022-11-13T23:32:26.981Z,13.50
2022-11-13T23:35:14.432Z,16.80
2022-11-13T23:38:01.026Z,19.10
2022-11-13T23:40:52.654Z,16.90
2022-11-13T23:44:08.329Z,17.00
2022-11-13T23:46:46.058Z,21.50
2022-11-13T23:49:33.025Z,22.50
2022-11-13T23:52:19.765Z,15.40
2022-11-13T23:55:06.708Z,15.70
2022-11-13T23:58:01.846Z,13.60
